Time;durP1;ratioP1;P1;durP2;ratioP2;P2;SDS_P1;SDS_P2;PMS_P1;PMS_P2;Temp;Humidity;BMP_temperature;BMP_pressure;BME280_temperature;BME280_humidity;BME280_pressure;Samples;Min_cycle;Max_cycle;Signal;HPM_P1;HPM_P2
2022/01/10 00:00:07;;;;;;;17.03;12.50;;;4.10;99.90;;;;;;5000833;28;20450;-86
2022/01/10 00:02:33;;;;;;;15.50;13.10;;;4.20;99.90;;;;;;5001204;28;20450;-86
2022/01/10 00:05:00;;;;;;;15.90;13.53;;;4.20;99.90;;;;;;5001205;28;20470;-86
2022/01/10 00:07:27;;;;;;;18.50;13.07;;;4.20;99.90;;;;;;5002014;28;20453;-87
2022/01/10 00:09:53;;;;;;;16.07;12.53;;;4.20;99.90;;;;;;5001510;28;20446;-87
2022/01/10 00:12:20;;;;;;;15.63;12.43;;;4.20;99.90;;;;;;5002095;28;20511;-87
2022/01/10 00:14:48;;;;;;;15.77;14.17;;;4.20;99.90;;;;;;5010629;28;20489;-87
2022/01/10 00:17:15;;;;;;;19.03;13.27;;;4.20;99.90;;;;;;5001068;28;20447;-86
2022/01/10 00:19:41;;;;;;;16.60;14.23;;;4.20;99.90;;;;;;5004203;28;20571;-86
2022/01/10 00:22:09;;;;;;;13.97;12.57;;;4.20;99.90;;;;;;5001038;28;20463;-86
2022/01/10 00:24:35;;;;;;;14.20;12.70;;;4.30;99.90;;;;;;5010262;28;20501;-86
2022/01/10 00:27:02;;;;;;;15.97;13.97;;;4.20;99.90;;;;;;5009783;28;20483;-85
2022/01/10 00:29:29;;;;;;;17.37;13.13;;;4.20;99.90;;;;;;5014068;28;20457;-85
2022/01/10 00:31:57;;;;;;;15.30;13.67;;;4.20;99.90;;;;;;5007465;28;20448;-87
2022/01/10 00:34:24;;;;;;;15.87;14.10;;;4.20;99.90;;;;;;5013025;28;20471;-85
2022/01/10 00:36:51;;;;;;;14.80;13.13;;;4.20;99.90;;;;;;5010351;28;20474;-87
2022/01/10 00:39:17;;;;;;;18.17;12.97;;;4.20;99.90;;;;;;5007980;28;20450;-87
2022/01/10 00:41:45;;;;;;;17.27;12.93;;;4.20;99.90;;;;;;5002818;28;20446;-87
2022/01/10 00:44:12;;;;;;;18.77;13.13;;;4.20;99.90;;;;;;5001391;28;20483;-87
2022/01/10 00:46:39;;;;;;;17.47;13.47;;;4.10;99.90;;;;;;5000527;28;20442;-86
2022/01/10 00:49:08;;;;;;;15.53;13.00;;;4.20;99.90;;;;;;5015005;28;20443;-86
2022/01/10 00:51:34;;;;;;;15.50;13.37;;;4.20;99.90;;;;;;5016448;28;20449;-87
2022/01/10 00:54:01;;;;;;;14.37;12.17;;;4.10;99.90;;;;;;5004754;28;20473;-87
2022/01/10 00:56:28;;;;;;;18.43;13.33;;;4.10;99.90;;;;;;5001838;28;20484;-87
2022/01/10 00:58:55;;;;;;;13.53;12.00;;;4.20;99.90;;;;;;4998907;28;20453;-86
2022/01/10 01:01:21;;;;;;;12.77;10.27;;;4.10;99.90;;;;;;4998973;28;20451;-88
2022/01/10 01:03:48;;;;;;;14.87;12.40;;;4.20;99.90;;;;;;4999708;28;20498;-87
2022/01/10 01:06:16;;;;;;;17.43;11.47;;;4.20;99.90;;;;;;4999209;28;20473;-87
2022/01/10 01:08:44;;;;;;;12.13;10.83;;;4.20;99.90;;;;;;4999592;28;20461;-87
2022/01/10 01:11:35;;;;;;;17.73;11.57;;;4.20;99.90;;;;;;4999044;28;20451;-86
2022/01/10 01:14:07;;;;;;;13.23;11.07;;;4.20;99.90;;;;;;4999123;28;20473;-87
2022/01/10 01:16:56;;;;;;;14.57;11.50;;;4.20;99.90;;;;;;4998990;28;20507;-87
2022/01/10 01:24:52;;;;;;;15.37;12.00;;;4.10;99.90;;;;;;5012577;28;21017;-86
2022/01/10 01:27:19;;;;;;;13.37;11.07;;;4.10;99.90;;;;;;5010486;28;20448;-87
2022/01/10 01:29:46;;;;;;;13.83;12.37;;;4.10;99.90;;;;;;4999894;28;20868;-87
2022/01/10 01:32:13;;;;;;;14.37;12.53;;;4.10;99.90;;;;;;4999335;28;20470;-86
2022/01/10 01:34:39;;;;;;;13.23;11.93;;;4.10;99.90;;;;;;4999379;28;20462;-86
2022/01/10 01:37:09;;;;;;;17.30;12.57;;;4.10;99.90;;;;;;5011779;28;20427;-88
2022/01/10 01:39:36;;;;;;;17.67;13.93;;;4.20;99.90;;;;;;5015415;28;20457;-87
2022/01/10 01:42:16;;;;;;;15.30;11.97;;;4.20;99.90;;;;;;5015708;28;20529;-87
2022/01/10 01:44:43;;;;;;;16.70;12.70;;;4.20;99.90;;;;;;5006580;28;20480;-87
2022/01/10 01:47:10;;;;;;;13.27;11.87;;;4.20;99.90;;;;;;5007800;28;20450;-88
2022/01/10 01:49:36;;;;;;;13.60;11.43;;;4.20;99.90;;;;;;5000510;28;20499;-86
2022/01/10 01:52:04;;;;;;;14.37;10.77;;;4.30;99.90;;;;;;4999161;28;20447;-87
2022/01/10 01:54:32;;;;;;;16.17;12.23;;;4.30;99.90;;;;;;4999318;28;20461;-88
2022/01/10 01:56:59;;;;;;;15.33;11.07;;;4.30;99.90;;;;;;4998091;28;20867;-87
2022/01/10 01:59:27;;;;;;;12.23;10.97;;;4.30;99.90;;;;;;4998835;28;20461;-87
2022/01/10 02:01:53;;;;;;;12.30;10.80;;;4.30;99.90;;;;;;4999456;28;20458;-87
2022/01/10 02:04:20;;;;;;;12.03;9.73;;;4.40;99.90;;;;;;5000024;28;21012;-87
2022/01/10 02:06:47;;;;;;;12.20;11.00;;;4.40;99.90;;;;;;4998938;28;20451;-87
2022/01/10 02:09:14;;;;;;;15.07;10.00;;;4.40;99.90;;;;;;4998615;28;20450;-88
2022/01/10 02:11:42;;;;;;;15.00;12.43;;;4.40;99.90;;;;;;4998287;28;20459;-87
2022/01/10 02:14:09;;;;;;;11.77;10.53;;;4.40;99.90;;;;;;4997284;28;20471;-87
2022/01/10 02:16:42;;;;;;;15.53;11.10;;;4.40;99.90;;;;;;4999519;28;20486;-86
2022/01/10 02:19:09;;;;;;;20.03;12.10;;;4.40;99.90;;;;;;4999221;28;20466;-87
2022/01/10 02:21:38;;;;;;;13.67;11.30;;;4.40;99.90;;;;;;4998702;28;20875;-87
2022/01/10 02:24:05;;;;;;;14.50;11.70;;;4.40;99.90;;;;;;4999131;28;20467;-86
2022/01/10 02:26:33;;;;;;;19.80;12.20;;;4.40;99.90;;;;;;5001878;28;20934;-87
2022/01/10 02:29:00;;;;;;;14.77;11.13;;;4.40;99.90;;;;;;5002230;28;20509;-87
2022/01/10 02:31:27;;;;;;;17.57;11.77;;;4.40;99.90;;;;;;5005370;28;20445;-87
2022/01/10 02:33:57;;;;;;;15.70;12.77;;;4.40;99.90;;;;;;5002500;28;20481;-86
2022/01/10 02:36:26;;;;;;;13.73;12.30;;;4.40;99.90;;;;;;5001495;28;20509;-87
2022/01/10 02:38:56;;;;;;;16.60;12.47;;;4.40;99.90;;;;;;5003190;28;20455;-87
2022/01/10 02:41:25;;;;;;;13.77;11.80;;;4.40;99.90;;;;;;5002371;28;20458;-88
2022/01/10 02:43:53;;;;;;;15.00;11.63;;;4.40;99.90;;;;;;5001227;28;20517;-87
2022/01/10 02:46:20;;;;;;;13.90;11.80;;;4.30;99.90;;;;;;5007405;28;20454;-86
2022/01/10 02:48:47;;;;;;;16.57;11.80;;;4.30;99.90;;;;;;5009931;28;20439;-87
2022/01/10 02:51:14;;;;;;;15.00;12.87;;;4.30;99.90;;;;;;5003100;28;20879;-87
2022/01/10 02:53:40;;;;;;;13.77;12.40;;;4.40;99.90;;;;;;5002785;28;20475;-88
2022/01/10 02:56:08;;;;;;;13.13;10.77;;;4.40;99.90;;;;;;5001563;28;21003;-86
2022/01/10 02:58:35;;;;;;;14.63;11.27;;;4.40;99.90;;;;;;5007305;28;20461;-88
2022/01/10 03:01:02;;;;;;;13.00;11.60;;;4.40;99.90;;;;;;5016391;28;20443;-86
2022/01/10 03:03:30;;;;;;;14.67;11.77;;;4.40;99.90;;;;;;5014430;28;20492;-85
2022/01/10 03:05:57;;;;;;;13.27;11.47;;;4.30;99.90;;;;;;5019664;28;20460;-89
2022/01/10 03:08:25;;;;;;;14.40;11.10;;;4.40;99.90;;;;;;5014848;28;20452;-87
2022/01/10 03:10:52;;;;;;;13.20;11.10;;;4.40;99.90;;;;;;5007912;28;20446;-86
2022/01/10 03:13:20;;;;;;;12.80;11.47;;;4.40;99.90;;;;;;5012859;28;20463;-87
2022/01/10 03:15:46;;;;;;;13.70;11.63;;;4.40;99.90;;;;;;5007220;28;20483;-87
2022/01/10 03:18:13;;;;;;;13.13;11.27;;;4.50;99.90;;;;;;5010465;28;20494;-87
2022/01/10 03:20:40;;;;;;;13.43;12.03;;;4.50;99.90;;;;;;5006387;28;20936;-86
2022/01/10 03:23:07;;;;;;;15.03;11.20;;;4.50;99.90;;;;;;5001152;28;20455;-87
2022/01/10 03:25:34;;;;;;;15.47;12.67;;;4.50;99.90;;;;;;5000457;28;20454;-87
2022/01/10 03:28:01;;;;;;;19.47;12.57;;;4.60;99.90;;;;;;4999873;28;20480;-87
2022/01/10 03:30:29;;;;;;;13.23;11.90;;;4.60;99.90;;;;;;4999910;28;20446;-87
2022/01/10 03:32:58;;;;;;;13.17;11.63;;;4.60;99.90;;;;;;5000104;28;20450;-87
2022/01/10 03:35:25;;;;;;;13.33;11.00;;;4.60;99.90;;;;;;5015456;28;20498;-86
2022/01/10 03:37:52;;;;;;;16.53;13.20;;;4.60;99.90;;;;;;5017407;28;20439;-87
2022/01/10 03:40:18;;;;;;;14.67;11.30;;;4.60;99.90;;;;;;4998716;28;21008;-86
2022/01/10 03:42:45;;;;;;;14.90;11.30;;;4.60;99.90;;;;;;5004769;28;20446;-87
2022/01/10 03:45:12;;;;;;;12.50;10.83;;;4.60;99.90;;;;;;5004458;28;20467;-86
2022/01/10 03:47:40;;;;;;;15.20;11.43;;;4.60;99.90;;;;;;5005843;28;20455;-85
2022/01/10 03:50:07;;;;;;;13.00;11.40;;;4.60;99.90;;;;;;5004229;28;20512;-87
2022/01/10 03:52:34;;;;;;;14.03;10.90;;;4.60;99.90;;;;;;5003879;28;20454;-87
2022/01/10 03:55:01;;;;;;;13.10;11.03;;;4.60;99.90;;;;;;5003702;28;20478;-86
2022/01/10 03:57:28;;;;;;;15.30;12.67;;;4.60;99.90;;;;;;5004307;28;20490;-86
2022/01/10 03:59:54;;;;;;;18.20;12.57;;;4.60;99.90;;;;;;5004498;28;20443;-87
2022/01/10 04:02:22;;;;;;;14.57;11.60;;;4.60;99.90;;;;;;5004632;28;20519;-86
2022/01/10 04:04:50;;;;;;;14.87;13.27;;;4.60;99.90;;;;;;5003804;28;20466;-85
2022/01/10 04:07:18;;;;;;;13.17;11.80;;;4.60;99.90;;;;;;5004225;28;20454;-86
2022/01/10 04:09:47;;;;;;;13.40;11.97;;;4.60;99.90;;;;;;5002955;28;20462;-87
2022/01/10 04:12:13;;;;;;;15.67;12.83;;;4.60;99.90;;;;;;5011136;28;20453;-87
2022/01/10 04:14:40;;;;;;;12.93;11.30;;;4.70;99.90;;;;;;5001250;28;20494;-86
2022/01/10 04:17:07;;;;;;;14.20;11.07;;;4.70;99.90;;;;;;5000142;28;20490;-87
2022/01/10 04:19:33;;;;;;;15.40;13.90;;;4.70;99.90;;;;;;4999576;28;20478;-86
2022/01/10 04:22:03;;;;;;;15.80;13.33;;;4.80;99.90;;;;;;4999877;28;20447;-88
2022/01/10 04:24:30;;;;;;;16.63;11.30;;;4.80;99.90;;;;;;5003407;28;20516;-86
2022/01/10 04:26:57;;;;;;;18.60;12.37;;;4.80;99.90;;;;;;5006484;28;20447;-87
2022/01/10 04:29:23;;;;;;;12.17;10.60;;;4.80;99.90;;;;;;5012025;28;20439;-87
2022/01/10 04:31:50;;;;;;;14.00;10.97;;;4.80;99.90;;;;;;5003988;28;20451;-87
2022/01/10 04:34:17;;;;;;;12.50;9.33;;;4.80;99.90;;;;;;5007076;28;20567;-87
2022/01/10 04:36:44;;;;;;;13.40;9.17;;;4.80;99.90;;;;;;5013428;28;20486;-87
2022/01/10 04:39:12;;;;;;;12.07;9.20;;;4.80;99.90;;;;;;5007388;28;20497;-86
2022/01/10 04:41:39;;;;;;;10.63;9.60;;;4.80;99.90;;;;;;5005705;28;20493;-85
2022/01/10 04:44:07;;;;;;;14.03;9.90;;;4.80;99.90;;;;;;5017356;23;20525;-86
2022/01/10 04:46:34;;;;;;;11.37;9.60;;;4.80;99.90;;;;;;4996199;28;20493;-89
2022/01/10 04:49:02;;;;;;;14.00;9.93;;;4.80;99.90;;;;;;5007842;28;20447;-90
2022/01/10 04:51:31;;;;;;;12.50;9.13;;;4.90;99.90;;;;;;4998050;28;20517;-89
2022/01/10 04:53:58;;;;;;;12.17;10.87;;;4.80;99.90;;;;;;4997845;28;20466;-89
2022/01/10 04:56:26;;;;;;;13.03;10.40;;;4.80;99.90;;;;;;4996747;28;20498;-89
2022/01/10 04:58:53;;;;;;;13.33;10.70;;;4.80;99.90;;;;;;4996383;28;20481;-89
2022/01/10 05:01:21;;;;;;;17.53;11.20;;;4.80;99.90;;;;;;4999384;28;20459;-89
2022/01/10 05:03:48;;;;;;;12.17;10.20;;;4.80;99.90;;;;;;4996166;28;20450;-89
2022/01/10 05:06:15;;;;;;;14.40;10.40;;;4.70;99.90;;;;;;4996187;28;20831;-89
2022/01/10 05:08:42;;;;;;;12.40;10.57;;;4.70;99.90;;;;;;4995747;28;20475;-89
2022/01/10 05:11:09;;;;;;;15.07;12.43;;;4.70;99.90;;;;;;4995160;28;20445;-89
2022/01/10 05:13:37;;;;;;;16.47;11.40;;;4.80;99.90;;;;;;4998513;28;20511;-89
2022/01/10 05:16:05;;;;;;;14.33;11.53;;;4.80;99.90;;;;;;5003340;28;20475;-89
2022/01/10 05:18:32;;;;;;;17.47;12.57;;;4.80;99.90;;;;;;5011126;28;20468;-89
2022/01/10 05:20:58;;;;;;;16.23;13.07;;;4.70;99.90;;;;;;5012115;28;20457;-88
2022/01/10 05:23:25;;;;;;;20.80;13.90;;;4.70;99.90;;;;;;5014330;28;20486;-88
2022/01/10 05:25:52;;;;;;;15.87;12.43;;;4.80;99.90;;;;;;4998061;28;20488;-89
2022/01/10 05:28:19;;;;;;;13.97;11.70;;;4.70;99.90;;;;;;4997299;28;20445;-88
2022/01/10 05:30:50;;;;;;;16.00;11.23;;;4.70;99.90;;;;;;4997145;28;20443;-89
2022/01/10 05:33:17;;;;;;;18.60;10.97;;;4.70;99.90;;;;;;5000103;28;20519;-88
2022/01/10 05:35:45;;;;;;;16.20;11.43;;;4.70;99.90;;;;;;4996771;28;20972;-89
2022/01/10 05:38:12;;;;;;;17.70;12.20;;;4.70;99.90;;;;;;4997414;28;20524;-88
2022/01/10 05:40:40;;;;;;;20.53;12.20;;;4.70;99.90;;;;;;4999650;28;20518;-88
2022/01/10 05:43:07;;;;;;;22.03;13.63;;;4.80;99.90;;;;;;5002279;28;20531;-88
2022/01/10 05:45:34;;;;;;;19.33;13.10;;;4.70;99.90;;;;;;5018044;28;20479;-90
2022/01/10 05:48:08;;;;;;;21.13;13.10;;;4.70;99.90;;;;;;5011245;28;20455;-88
2022/01/10 05:50:36;;;;;;;21.30;13.40;;;4.70;99.90;;;;;;5018013;28;20438;-91
2022/01/10 05:53:04;;;;;;;19.63;12.60;;;4.80;99.90;;;;;;5009720;28;20438;-89
2022/01/10 05:55:31;;;;;;;18.83;12.53;;;4.80;99.90;;;;;;5017327;28;20463;-89
2022/01/10 05:57:58;;;;;;;15.97;12.37;;;4.70;99.90;;;;;;5005287;28;20482;-89
2022/01/10 06:00:25;;;;;;;15.50;13.00;;;4.70;99.90;;;;;;5000879;28;20952;-89
2022/01/10 06:02:52;;;;;;;15.43;12.13;;;4.70;99.90;;;;;;5001021;28;20458;-89
2022/01/10 06:05:21;;;;;;;15.10;12.63;;;4.80;99.90;;;;;;4999935;28;20476;-90
2022/01/10 06:07:48;;;;;;;17.27;12.40;;;4.80;99.90;;;;;;5004416;28;20459;-88
2022/01/10 06:10:15;;;;;;;18.93;12.77;;;4.80;99.90;;;;;;5016359;28;20481;-88
2022/01/10 06:12:42;;;;;;;24.90;12.93;;;4.80;99.90;;;;;;5004187;28;20435;-83
2022/01/10 06:15:09;;;;;;;14.53;11.70;;;4.80;99.90;;;;;;5001482;28;20828;-81
2022/01/10 06:17:36;;;;;;;14.90;12.83;;;4.90;99.90;;;;;;4997828;28;21027;-80
2022/01/10 06:20:03;;;;;;;18.33;12.67;;;5.00;99.90;;;;;;4999589;28;20864;-80
2022/01/10 06:22:31;;;;;;;16.33;12.90;;;4.90;99.90;;;;;;4997190;28;20884;-87
2022/01/10 06:24:58;;;;;;;18.77;13.00;;;5.00;99.90;;;;;;4997877;28;20469;-87
2022/01/10 06:27:25;;;;;;;15.97;13.13;;;5.00;99.90;;;;;;4998244;28;20447;-87
2022/01/10 06:29:52;;;;;;;17.83;11.73;;;4.90;99.90;;;;;;4998850;28;20971;-87
2022/01/10 06:32:19;;;;;;;23.30;13.17;;;4.90;99.90;;;;;;5002804;28;20457;-87
2022/01/10 06:34:45;;;;;;;17.53;12.33;;;4.90;99.90;;;;;;4996688;28;20470;-87
2022/01/10 06:37:12;;;;;;;16.30;12.43;;;4.90;99.90;;;;;;4996355;28;20475;-87
2022/01/10 06:39:41;;;;;;;21.73;13.33;;;4.90;99.90;;;;;;4996884;28;20435;-88
2022/01/10 06:42:08;;;;;;;20.40;12.80;;;4.90;99.90;;;;;;4997270;28;20446;-87
2022/01/10 06:44:35;;;;;;;19.93;12.93;;;5.00;99.90;;;;;;4997205;28;20490;-87
2022/01/10 06:47:02;;;;;;;18.40;13.03;;;4.90;99.90;;;;;;4996322;28;20451;-87
2022/01/10 06:49:29;;;;;;;18.30;13.37;;;4.90;99.90;;;;;;4996386;28;20824;-87
2022/01/10 06:51:56;;;;;;;21.17;15.23;;;4.90;99.90;;;;;;5003609;28;20434;-87
2022/01/10 06:54:23;;;;;;;18.80;14.73;;;4.90;99.90;;;;;;5019453;28;20463;-89
2022/01/10 06:56:51;;;;;;;17.00;14.20;;;4.90;99.90;;;;;;5018657;28;20477;-87
2022/01/10 06:59:18;;;;;;;20.80;15.13;;;4.90;99.90;;;;;;5014861;28;20446;-87
2022/01/10 07:01:46;;;;;;;22.70;15.77;;;4.90;99.90;;;;;;5006161;28;20443;-87
2022/01/10 07:04:13;;;;;;;20.80;14.40;;;4.90;99.90;;;;;;4998514;28;20481;-87
2022/01/10 07:06:41;;;;;;;21.90;14.93;;;5.00;99.90;;;;;;4997685;28;20447;-88
2022/01/10 07:09:10;;;;;;;22.33;14.30;;;5.00;99.90;;;;;;4998068;28;20459;-87
2022/01/10 07:11:38;;;;;;;22.13;17.20;;;5.00;99.90;;;;;;4997058;28;20474;-88
2022/01/10 07:14:06;;;;;;;17.93;16.00;;;5.00;99.90;;;;;;4996762;28;20486;-88
2022/01/10 07:16:34;;;;;;;21.40;16.53;;;5.00;99.90;;;;;;4996312;28;21018;-89
2022/01/10 07:19:01;;;;;;;19.00;14.43;;;5.00;99.90;;;;;;4996646;28;20854;-86
2022/01/10 07:21:28;;;;;;;17.10;13.67;;;5.00;99.90;;;;;;4995994;28;20451;-87
2022/01/10 07:23:54;;;;;;;19.90;14.50;;;5.00;99.90;;;;;;4996125;28;20471;-87
2022/01/10 07:26:22;;;;;;;20.23;14.73;;;5.00;99.90;;;;;;4995741;28;20440;-87
2022/01/10 07:28:49;;;;;;;23.87;14.53;;;5.00;99.90;;;;;;4999292;28;20447;-87
2022/01/10 07:31:17;;;;;;;16.67;13.37;;;5.00;99.90;;;;;;5005820;28;20447;-87
2022/01/10 07:33:44;;;;;;;14.97;13.37;;;5.00;99.90;;;;;;4998079;28;20440;-88
2022/01/10 07:36:10;;;;;;;24.50;17.00;;;5.10;99.90;;;;;;4996586;28;20845;-87
2022/01/10 07:38:37;;;;;;;22.70;14.20;;;5.00;99.90;;;;;;4996391;28;20492;-88
2022/01/10 07:41:06;;;;;;;21.50;14.47;;;5.10;99.90;;;;;;5008905;28;20430;-87
2022/01/10 07:43:33;;;;;;;20.70;14.57;;;5.00;99.90;;;;;;5008773;28;20457;-87
2022/01/10 07:46:00;;;;;;;20.90;13.60;;;5.10;99.90;;;;;;4995466;28;20486;-87
2022/01/10 07:48:31;;;;;;;26.67;15.73;;;5.00;99.90;;;;;;4995779;28;20508;-88
2022/01/10 07:50:58;;;;;;;26.00;16.97;;;5.00;99.90;;;;;;4995686;28;20453;-87
2022/01/10 07:53:24;;;;;;;15.70;13.30;;;5.10;99.90;;;;;;4996016;28;20446;-87
2022/01/10 07:55:51;;;;;;;20.40;14.40;;;5.10;99.90;;;;;;4995140;28;20481;-87
2022/01/10 07:58:19;;;;;;;20.80;14.13;;;5.10;99.90;;;;;;4996284;28;20483;-88
2022/01/10 08:00:46;;;;;;;18.80;14.10;;;5.10;99.90;;;;;;4996035;28;20823;-87
2022/01/10 08:03:13;;;;;;;20.30;13.90;;;5.10;99.90;;;;;;4994978;28;20451;-87
2022/01/10 08:05:41;;;;;;;18.10;14.13;;;5.20;99.90;;;;;;5007315;28;20478;-87
2022/01/10 08:08:08;;;;;;;18.67;14.60;;;5.20;99.90;;;;;;5018537;28;20449;-87
2022/01/10 08:10:34;;;;;;;16.67;14.87;;;5.10;99.90;;;;;;5002887;28;20435;-88
2022/01/10 08:13:16;;;;;;;27.33;19.67;;;5.20;99.90;;;;;;5014362;28;20453;-89
2022/01/10 08:15:45;;;;;;;22.20;16.63;;;5.20;99.90;;;;;;4995119;28;20467;-87
2022/01/10 08:18:37;;;;;;;24.23;15.07;;;5.20;99.90;;;;;;4997966;28;21011;-90
2022/01/10 08:29:39;;;;;;;19.40;17.30;;;5.30;99.90;;;;;;5478594;23;20481;-87
2022/01/10 08:32:17;;;;;;;29.70;19.77;;;5.30;99.90;;;;;;5023863;28;20480;-86
2022/01/10 08:34:48;;;;;;;22.93;17.17;;;5.40;99.90;;;;;;5030818;28;20503;-87
2022/01/10 08:37:21;;;;;;;22.07;18.00;;;5.40;99.90;;;;;;5018026;28;20889;-86
2022/01/10 08:39:58;;;;;;;18.90;14.90;;;5.40;99.90;;;;;;5017232;28;20461;-86
2022/01/10 08:42:26;;;;;;;18.50;16.40;;;5.40;99.90;;;;;;5022894;28;20454;-86
2022/01/10 08:44:54;;;;;;;18.07;16.03;;;5.40;99.90;;;;;;5031933;28;20466;-88
2022/01/10 08:47:21;;;;;;;18.33;15.57;;;5.50;99.90;;;;;;5016306;28;20442;-86
2022/01/10 08:50:57;;;;;;;25.93;16.43;;;5.50;99.90;;;;;;5022864;28;20446;-87
2022/01/10 08:56:40;;;;;;;20.33;14.07;;;5.70;99.90;;;;;;4922598;29;20452;-88
2022/01/10 08:59:07;;;;;;;14.60;12.03;;;5.70;99.90;;;;;;4995303;28;20496;-88
2022/01/10 09:01:35;;;;;;;19.43;12.40;;;5.80;99.90;;;;;;5015634;28;20941;-88
2022/01/10 09:04:07;;;;;;;16.27;14.57;;;5.80;99.90;;;;;;5013977;28;21019;-88
2022/01/10 09:06:34;;;;;;;18.53;13.97;;;5.90;99.90;;;;;;5015223;28;20434;-88
2022/01/10 09:09:03;;;;;;;16.03;13.97;;;5.90;99.90;;;;;;5014789;28;20450;-88
2022/01/10 09:11:30;;;;;;;17.07;13.27;;;6.00;99.90;;;;;;5015270;28;20467;-88
2022/01/10 09:13:57;;;;;;;15.40;13.83;;;6.00;99.90;;;;;;5013997;28;20494;-88
2022/01/10 09:26:04;;;;;;;15.93;14.23;;;6.20;99.90;;;;;;5011457;28;21054;-89
2022/01/10 09:29:18;;;;;;;19.43;13.97;;;6.10;99.90;;;;;;5016072;28;20484;-88
2022/01/10 09:31:59;;;;;;;18.57;12.90;;;6.00;99.90;;;;;;5009678;28;20454;-88
2022/01/10 09:34:41;;;;;;;17.90;13.93;;;5.90;99.90;;;;;;5018023;28;20513;-88
2022/01/10 09:53:01;;;;;;;21.07;13.77;;;6.10;99.90;;;;;;4959187;29;20559;-90
2022/01/10 09:55:31;;;;;;;18.53;14.60;;;6.20;99.90;;;;;;4958878;28;20559;-87
2022/01/10 10:04:43;;;;;;;19.17;13.70;;;6.70;99.90;;;;;;4949782;28;20438;-87
2022/01/10 10:07:10;;;;;;;22.13;16.43;;;7.00;99.90;;;;;;5014790;28;20422;-88
2022/01/10 10:09:39;;;;;;;16.93;15.13;;;7.10;99.90;;;;;;5018248;28;20451;-88
2022/01/10 10:12:07;;;;;;;22.23;16.90;;;7.50;99.90;;;;;;5016739;28;20481;-87
2022/01/10 10:14:34;;;;;;;20.50;16.23;;;7.50;99.90;;;;;;5010273;28;20467;-88
2022/01/10 10:17:08;;;;;;;23.07;17.20;;;7.60;99.90;;;;;;5001269;28;20458;-87
2022/01/10 10:23:17;;;;;;;20.27;16.37;;;7.50;99.90;;;;;;4999476;28;20437;-87
2022/01/10 10:25:50;;;;;;;21.53;16.80;;;7.50;99.90;;;;;;5047097;23;20498;-87
2022/01/10 10:28:41;;;;;;;26.30;18.60;;;7.40;99.90;;;;;;5017177;28;20424;-87
2022/01/10 10:31:08;;;;;;;19.10;16.20;;;7.30;99.90;;;;;;5018696;28;20482;-87
2022/01/10 10:33:35;;;;;;;19.70;17.23;;;7.20;99.90;;;;;;5019185;28;20442;-87
2022/01/10 10:39:27;;;;;;;18.03;15.20;;;7.20;99.90;;;;;;4970426;28;20482;-88
2022/01/10 10:41:56;;;;;;;18.00;14.37;;;7.20;99.90;;;;;;4998120;28;20439;-87
2022/01/10 10:44:24;;;;;;;16.43;14.63;;;7.30;99.90;;;;;;5001543;28;20478;-89
2022/01/10 10:46:51;;;;;;;16.37;13.40;;;7.20;99.90;;;;;;5011444;28;20436;-88
2022/01/10 10:49:22;;;;;;;19.07;12.93;;;7.40;99.90;;;;;;5018212;28;20519;-88
2022/01/10 10:51:50;;;;;;;13.83;11.23;;;7.50;99.90;;;;;;5002577;28;20486;-87
2022/01/10 10:54:19;;;;;;;14.70;11.47;;;7.40;99.90;;;;;;4999642;28;20523;-87
2022/01/10 10:56:46;;;;;;;15.10;12.63;;;7.40;99.90;;;;;;5000758;28;20479;-89
2022/01/10 10:59:14;;;;;;;14.83;12.90;;;7.60;99.90;;;;;;4999093;28;20478;-92
2022/01/10 11:01:43;;;;;;;12.50;9.40;;;7.90;99.90;;;;;;5000541;28;20444;-87
2022/01/10 11:04:11;;;;;;;18.43;11.30;;;8.20;99.90;;;;;;4981944;28;20475;-87
2022/01/10 11:06:40;;;;;;;14.73;11.20;;;8.00;99.90;;;;;;4997045;28;20439;-88
2022/01/10 11:09:11;;;;;;;22.03;11.80;;;8.10;99.90;;;;;;4998276;28;20449;-87
2022/01/10 11:11:43;;;;;;;18.03;11.90;;;8.20;99.90;;;;;;4999846;28;20993;-94
2022/01/10 11:14:13;;;;;;;15.00;9.70;;;8.40;99.90;;;;;;5003170;28;20525;-87
2022/01/10 11:16:44;;;;;;;20.07;11.00;;;8.50;99.90;;;;;;4998223;28;20486;-87
2022/01/10 11:19:16;;;;;;;16.90;10.00;;;8.60;99.90;;;;;;4999067;28;21000;-86
2022/01/10 11:21:47;;;;;;;11.40;10.20;;;9.00;99.90;;;;;;4999536;28;20463;-88
2022/01/10 11:24:44;;;;;;;15.03;10.40;;;9.20;99.90;;;;;;4998036;28;20467;-87
2022/01/10 11:27:32;;;;;;;15.73;9.87;;;10.20;99.90;;;;;;4997903;28;20459;-87
2022/01/10 11:30:00;;;;;;;12.60;9.23;;;11.00;98.20;;;;;;4996849;28;20961;-87
2022/01/10 11:32:56;;;;;;;13.33;10.13;;;10.90;97.00;;;;;;4997827;28;20455;-87
2022/01/10 11:35:27;;;;;;;11.17;9.90;;;10.80;96.90;;;;;;4987271;28;20467;-87
2022/01/10 11:37:54;;;;;;;14.53;9.87;;;10.90;96.70;;;;;;5002855;28;20443;-91
2022/01/10 11:40:22;;;;;;;14.00;9.40;;;11.00;96.50;;;;;;5003578;28;20526;-88
2022/01/10 11:42:55;;;;;;;12.73;9.37;;;10.70;95.50;;;;;;5018020;28;20450;-86
2022/01/10 11:45:22;;;;;;;13.17;9.60;;;10.00;96.10;;;;;;5015100;28;20498;-87
2022/01/10 11:48:18;;;;;;;18.60;9.37;;;9.30;97.70;;;;;;5013966;28;20534;-88
2022/01/10 11:50:51;;;;;;;18.53;12.10;;;8.60;99.20;;;;;;5004144;28;20447;-87
2022/01/10 11:53:19;;;;;;;13.50;10.90;;;8.60;99.90;;;;;;4998692;28;20455;-87
2022/01/10 11:55:53;;;;;;;14.73;11.53;;;8.80;99.90;;;;;;4998172;28;20466;-87
2022/01/10 11:58:21;;;;;;;17.63;10.90;;;9.10;99.90;;;;;;4997689;28;20486;-86
2022/01/10 12:00:50;;;;;;;15.57;13.07;;;9.30;99.70;;;;;;4997489;28;20844;-87
2022/01/10 12:03:19;;;;;;;19.70;12.23;;;9.30;99.40;;;;;;4997802;28;20482;-86
2022/01/10 12:05:46;;;;;;;17.83;12.53;;;9.50;99.70;;;;;;4998592;28;20486;-88
2022/01/10 12:08:13;;;;;;;16.97;13.23;;;9.60;99.20;;;;;;4996302;28;20470;-87
2022/01/10 12:10:40;;;;;;;14.47;10.30;;;9.80;98.80;;;;;;4999522;28;20457;-88
2022/01/10 12:13:09;;;;;;;15.00;10.80;;;9.90;98.60;;;;;;4997450;28;20471;-87
2022/01/10 12:15:38;;;;;;;12.90;11.00;;;9.80;98.40;;;;;;5000445;28;20490;-87
2022/01/10 12:18:06;;;;;;;12.40;10.90;;;9.50;98.60;;;;;;5003786;28;20823;-87
2022/01/10 12:20:35;;;;;;;15.53;11.40;;;9.60;98.90;;;;;;5002587;28;20538;-88
2022/01/10 12:23:02;;;;;;;19.33;12.67;;;9.10;98.60;;;;;;4997458;28;20466;-88
2022/01/10 12:25:29;;;;;;;15.00;11.33;;;8.80;99.40;;;;;;4996784;28;20855;-87
2022/01/10 12:28:00;;;;;;;10.77;9.33;;;8.60;99.80;;;;;;4996763;28;21019;-87
2022/01/10 12:30:27;;;;;;;19.97;12.63;;;8.20;99.90;;;;;;4997816;28;20455;-87
2022/01/10 12:32:54;;;;;;;19.47;11.13;;;8.00;99.90;;;;;;5003077;28;20455;-87
2022/01/10 12:35:21;;;;;;;17.60;11.90;;;7.90;99.90;;;;;;5001020;28;20475;-87
2022/01/10 12:37:54;;;;;;;17.47;11.47;;;7.70;99.90;;;;;;4999137;28;20968;-87
2022/01/10 12:40:23;;;;;;;14.47;11.93;;;7.70;99.90;;;;;;5001306;28;20447;-87
2022/01/10 12:42:53;;;;;;;19.77;11.93;;;7.40;99.90;;;;;;5002915;28;20462;-87
2022/01/10 12:45:19;;;;;;;16.20;11.63;;;7.20;99.90;;;;;;4999748;28;20551;-87
2022/01/10 12:47:47;;;;;;;16.00;12.20;;;7.20;99.90;;;;;;5014972;28;20449;-87
2022/01/10 12:50:14;;;;;;;14.93;11.70;;;7.20;99.90;;;;;;5017727;28;20435;-88
2022/01/10 12:52:42;;;;;;;14.77;12.17;;;7.20;99.90;;;;;;5016431;28;20475;-87
2022/01/10 12:55:10;;;;;;;18.53;12.93;;;7.20;99.90;;;;;;5014346;28;20482;-88
2022/01/10 12:57:37;;;;;;;21.00;12.40;;;7.20;99.90;;;;;;5016110;28;20447;-86
2022/01/10 13:00:07;;;;;;;22.33;12.77;;;7.30;99.90;;;;;;5004331;28;20482;-88
2022/01/10 13:02:34;;;;;;;21.03;12.90;;;7.40;99.90;;;;;;5005103;28;20486;-86
2022/01/10 13:05:07;;;;;;;18.83;12.93;;;7.40;99.90;;;;;;5007619;28;20478;-87
2022/01/10 13:07:37;;;;;;;27.37;15.07;;;7.30;99.90;;;;;;5006837;28;20494;-86
2022/01/10 13:10:07;;;;;;;20.70;14.70;;;7.30;99.90;;;;;;5004412;28;20472;-86
2022/01/10 13:12:37;;;;;;;20.10;14.63;;;7.30;99.90;;;;;;5017028;28;20446;-86
2022/01/10 13:15:09;;;;;;;19.97;15.60;;;7.30;99.90;;;;;;5020255;28;20446;-87
2022/01/10 13:17:36;;;;;;;20.43;16.77;;;7.40;99.90;;;;;;5021488;28;20450;-88
2022/01/10 13:20:06;;;;;;;20.43;15.70;;;7.40;99.90;;;;;;4999989;28;20478;-87
2022/01/10 13:22:35;;;;;;;17.87;15.87;;;7.40;99.90;;;;;;5010744;28;20431;-88
2022/01/10 13:25:05;;;;;;;26.47;16.70;;;7.50;99.90;;;;;;5013767;28;20499;-86
2022/01/10 13:27:37;;;;;;;22.60;15.53;;;7.60;99.90;;;;;;5015851;28;20451;-87
2022/01/10 13:30:17;;;;;;;21.40;15.70;;;7.60;99.90;;;;;;5016575;28;20458;-87
2022/01/10 13:32:46;;;;;;;25.93;14.47;;;7.70;99.90;;;;;;5017591;28;20446;-87
2022/01/10 13:35:16;;;;;;;21.80;14.57;;;7.70;99.90;;;;;;5017694;28;20499;-86
2022/01/10 13:37:45;;;;;;;18.87;13.73;;;7.70;99.90;;;;;;5017064;28;20443;-86
2022/01/10 13:40:16;;;;;;;17.60;14.07;;;7.80;99.90;;;;;;5017651;28;20485;-87
2022/01/10 13:42:50;;;;;;;15.30;13.70;;;7.70;99.90;;;;;;5017299;28;20470;-87